Latest Weather Observations for Coonabarabran Airport

IDN60801

Issued at 10:05 pm EDT Friday 24 October 2014 (issued every 30 minutes, with the page automatically refreshed every 10 minutes)

About weather observations | Map of weather stations | Latest weather observations for NSW | Other Formats
Station Details ID: 064017 Name: COONABARABRAN AIRPORT AWS Lat: -31.33 Lon: 149.27 Height: 645.0 m
Data from the previous 72 hours. | See also: Recent months for locations in New South Wales
Date/Time
EDT
Temp
°C
App
Temp
°C
Dew
Point
Rel
Hum
%
Delta-T
°C
Wind Press
QNH
hPa
Press
MSL
hPa
Rain
since 9 am
mm
Dir
 
Spd
km/h
Gust
km/h
Spd
kts
Gust
kts
24/10:00pm 26.4 22.7 2.3 21 12.0 W 11 13 6 7 1018.0 1015.9 0.0
24/09:30pm 27.6 23.5 4.6 23 12.1 WSW 15 24 8 13 1018.0 1015.9 0.0
24/09:00pm 25.8 21.3 6.9 30 10.2 WNW 20 26 11 14 1017.5 1015.4 0.0
24/08:30pm 26.2 22.7 7.3 30 10.3 N 15 19 8 10 1016.5 1014.4 0.0
24/08:00pm 26.8 22.9 7.3 29 10.7 N 17 20 9 11 1016.3 1014.2 0.0
24/07:30pm 27.3 24.1 6.7 27 11.2 N 13 20 7 11 1016.1 1014.0 0.0
24/07:00pm 28.7 25.3 6.1 24 12.2 N 13 17 7 9 1016.0 1013.9 0.0
24/06:30pm 30.0 27.1 6.6 23 12.9 N 11 17 6 9 1015.9 1013.8 0.0
24/06:00pm 30.3 26.1 5.6 21 13.4 N 17 26 9 14 1015.9 1013.8 0.0
24/05:30pm 30.4 25.0 6.3 22 13.2 NNW 24 32 13 17 1015.9 1013.8 0.0
24/05:00pm 31.4 26.5 7.1 22 13.6 NNW 22 35 12 19 1016.1 1014.0 0.0
24/04:30pm 31.4 26.2 7.1 22 13.6 NNW 24 39 13 21 1016.6 1014.5 0.0
24/04:00pm 31.6 26.4 7.3 22 13.6 NW 24 33 13 18 1016.8 1014.8 0.0
24/03:30pm 31.6 26.0 7.3 22 13.6 NNW 26 43 14 23 1017.1 1015.1 0.0
24/03:04pm 31.1 25.2 7.5 23 13.2 NNW 28 46 15 25 1017.6 1015.5 0.0
24/03:00pm 31.1 25.8 6.9 22 13.4 N 24 46 13 25 1017.7 1015.6 0.0
24/02:57pm 31.0 24.9 6.8 22 13.4 N 28 46 15 25 1017.6 1015.5 0.0
24/02:30pm 31.3 26.8 7.1 22 13.5 NW 20 26 11 14 1018.1 1016.1 0.0
24/02:00pm 30.4 25.0 8.2 25 12.5 N 26 39 14 21 1018.5 1016.5 0.0
24/01:30pm 30.1 24.9 7.3 24 12.7 NNW 24 39 13 21 1019.0 1017.0 0.0
24/01:00pm 29.9 25.1 8.9 27 12.0 N 24 37 13 20 1019.4 1017.3 0.0
24/12:30pm 29.0 24.8 9.7 30 11.1 N 22 32 12 17 1020.1 1018.1 0.0
24/12:00pm 28.3 23.8 10.0 32 10.5 N 24 35 13 19 1020.6 1018.6 0.0
24/11:30am 26.4 22.6 9.7 35 9.5 N 20 28 11 15 1021.3 1019.3 0.0
24/11:00am 26.4 22.0 10.5 37 9.1 N 24 37 13 20 1021.6 1019.6 0.0
24/10:30am 25.6 21.3 10.6 39 8.6 N 24 35 13 19 1021.7 1019.7 0.0
24/10:00am 24.2 20.4 9.8 40 8.1 N 20 32 11 17 1022.1 1020.1 0.0
24/09:30am 23.3 19.9 10.7 45 7.2 N 19 24 10 13 1022.5 1020.5 0.0
24/09:00am 21.7 19.4 10.5 49 6.3 N 13 19 7 10 1022.7 1020.7 0.0
24/08:30am 20.0 18.5 10.4 54 5.4 N 9 15 5 8 1022.6 1020.6 0.0
24/08:00am 19.4 18.2 10.4 56 5.0 N 7 15 4 8 1022.3 1020.4 0.0
24/07:30am 20.0 17.6 9.9 52 5.6 N 13 17 7 9 1022.0 1020.0 0.0
24/07:00am 18.2 16.9 10.1 59 4.4 W 7 13 4 7 1022.0 1020.0 0.0
24/06:30am 17.4 14.2 10.1 62 4.0 N 17 20 9 11 1021.3 1019.3 0.0
24/06:00am 16.9 13.7 9.8 63 3.8 N 17 22 9 12 1020.9 1018.9 0.0
24/05:30am 17.4 14.5 9.6 60 4.2 N 15 20 8 11 1020.6 1018.6 0.0
24/05:00am 16.8 14.7 9.7 63 3.8 N 11 15 6 8 1020.5 1018.5 0.0
24/04:30am 17.8 14.2 10.7 63 3.9 NE 20 24 11 13 1020.2 1018.2 0.0
24/04:00am 17.3 14.2 10.2 63 3.9 S 17 30 9 16 1021.2 1019.2 0.0
24/03:30am 19.2 17.5 8.5 50 5.7 N 7 15 4 8 1020.2 1018.2 0.0
24/03:00am 19.7 16.6 9.0 50 5.8 N 15 39 8 21 1019.3 1017.2 0.0
24/02:30am 18.6 15.9 9.1 54 5.1 NNE 13 17 7 9 1020.6 1018.6 0.0
24/02:00am 19.0 15.5 8.9 52 5.4 NNE 17 20 9 11 1020.6 1018.6 0.0
24/01:30am 19.2 15.8 9.1 52 5.5 NNE 17 22 9 12 1021.0 1019.0 0.0
24/01:00am 19.2 15.4 9.7 54 5.2 NE 20 26 11 14 1020.9 1018.9 0.0
24/12:30am 19.2 15.0 9.7 54 5.2 NE 22 28 12 15 1021.2 1019.2 0.0
24/12:00am 19.9 15.7 9.8 52 5.6 ENE 22 28 12 15 1021.2 1019.2 0.0
 
Date/Time
EDT
Temp
°C
App
Temp
°C
Dew
Point
Rel
Hum
%
Delta-T
°C
Wind Press
QNH
hPa
Press
MSL
hPa
Rain
since 9 am
mm
Dir
 
Spd
km/h
Gust
km/h
Spd
kts
Gust
kts
23/11:30pm 19.6 16.0 9.8 53 5.4 ENE 19 20 10 11 1021.4 1019.4 0.0
23/11:00pm 20.8 18.1 9.1 47 6.4 N 13 15 7 8 1021.1 1019.1 0.0
23/10:30pm 20.9 18.3 9.2 47 6.4 N 13 15 7 8 1021.0 1019.0 0.0
23/10:00pm 21.3 19.1 9.2 46 6.6 N 11 13 6 7 1021.0 1019.0 0.0
23/09:30pm 21.6 19.2 8.8 44 7.0 N 11 15 6 8 1020.5 1018.5 0.0
23/09:00pm 22.4 20.3 8.1 40 7.7 N 9 13 5 7 1020.3 1018.3 0.0
23/08:30pm 24.0 21.6 4.4 28 10.0 WSW 6 9 3 5 1019.6 1017.6 0.0
23/08:00pm 23.9 21.7 5.3 30 9.7 SSW 6 13 3 7 1019.2 1017.1 0.0
23/07:30pm 25.4 23.3 5.6 28 10.4 SSW 6 13 3 7 1018.8 1016.8 0.0
23/07:00pm 27.1 24.9 6.0 26 11.3 SW 7 13 4 7 1018.6 1016.6 0.0
23/06:30pm 28.1 25.1 6.2 25 11.9 SW 11 15 6 8 1018.5 1016.5 0.0
23/06:00pm 28.1 25.0 5.6 24 12.0 S 11 15 6 8 1018.1 1016.1 0.0
23/05:30pm 28.8 25.8 6.2 24 12.3 SW 11 17 6 9 1018.1 1016.1 0.0
23/05:00pm 29.5 25.8 6.2 23 12.7 WSW 15 26 8 14 1018.0 1015.9 0.0
23/04:30pm 29.7 25.6 6.4 23 12.8 SW 17 26 9 14 1018.1 1016.1 0.0
23/04:00pm 29.4 25.0 6.7 24 12.5 S 19 28 10 15 1018.2 1016.2 0.0
23/03:30pm 28.9 24.8 6.3 24 12.3 W 17 28 9 15 1018.5 1016.5 0.0
23/03:00pm 27.8 24.9 6.6 26 11.5 S 11 17 6 9 1018.8 1016.8 0.0
23/02:30pm 29.1 25.1 6.5 24 12.4 SSW 17 22 9 12 1019.6 1017.6 0.0
23/02:00pm 27.7 24.4 6.5 26 11.5 WNW 13 24 7 13 1020.0 1018.0 0.0
23/01:30pm 27.9 25.5 7.2 27 11.4 W 9 26 5 14 1020.3 1018.3 0.0
23/01:00pm 27.4 23.8 6.8 27 11.2 SW 15 22 8 12 1020.8 1018.7 0.0
23/12:30pm 27.4 24.8 7.8 29 10.9 SSW 11 19 6 10 1021.1 1019.1 0.0
23/12:00pm 26.3 23.9 10.0 36 9.3 NNW 13 26 7 14 1021.3 1019.3 0.0
23/11:30am 25.5 24.4 10.5 39 8.6 NW 7 13 4 7 1021.8 1019.8 0.0
23/11:00am 24.8 23.0 11.0 42 7.9 NNW 11 15 6 8 1022.2 1020.3 0.0
23/10:30am 24.1 22.4 12.4 48 6.9 N 13 15 7 8 1022.3 1020.4 0.0
23/10:00am 22.9 21.2 12.5 52 6.1 N 13 19 7 10 1022.3 1020.4 0.0
23/09:30am 21.6 20.0 12.7 57 5.2 N 13 19 7 10 1022.2 1020.3 0.0
23/09:00am 19.8 16.8 11.8 60 4.6 N 19 24 10 13 1022.0 1020.0 0.0
23/08:30am 18.8 16.1 12.8 68 3.5 N 19 26 10 14 1021.7 1019.7 0.0
23/08:00am 17.9 15.6 11.7 67 3.5 N 15 22 8 12 1021.5 1019.5 0.0
23/07:30am 19.6 18.5 11.9 61 4.4 ESE 9 19 5 10 1021.2 1019.2 0.0
23/07:00am 18.4 17.0 11.0 62 4.1 SSE 9 11 5 6 1020.8 1018.7 0.0
23/06:30am 18.2 17.2 10.3 60 4.4 S 6 13 3 7 1020.4 1018.4 0.0
23/06:00am 17.8 16.7 10.7 63 3.9 S 7 11 4 6 1020.3 1018.3 0.0
23/05:30am 17.1 16.2 10.7 66 3.5 SSE 6 15 3 8 1020.0 1018.0 0.0
23/05:00am 17.0 15.4 11.5 70 3.1 WSW 11 13 6 7 1020.1 1018.1 0.0
23/04:30am 16.0 14.5 12.0 77 2.3 NNW 11 13 6 7 1019.9 1017.9 0.0
23/04:00am 16.6 15.1 11.9 74 2.6 NNW 11 13 6 7 1019.9 1017.9 0.0
23/03:30am 17.4 16.3 11.9 70 3.1 N 9 15 5 8 1020.1 1018.1 0.0
23/03:00am 17.3 16.6 12.0 71 3.0 N 7 15 4 8 1020.6 1018.6 0.0
23/02:30am 18.9 14.9 11.7 63 4.1 NW 24 32 13 17 1020.9 1018.9 0.0
23/02:00am 21.2 15.5 9.8 48 6.3 WNW 30 35 16 19 1021.4 1019.4 0.0
23/01:30am 19.2 16.8 9.9 55 5.1 N 13 19 7 10 1021.2 1019.2 0.0
23/01:00am 20.2 18.2 10.0 52 5.6 NNW 11 15 6 8 1021.6 1019.6 0.0
23/12:30am 19.6 16.9 10.3 55 5.2 NW 15 17 8 9 1021.8 1019.8 0.0
23/12:00am 18.6 15.7 9.7 56 4.9 N 15 17 8 9 1021.4 1019.4 0.0
 
Date/Time
EDT
Temp
°C
App
Temp
°C
Dew
Point
Rel
Hum
%
Delta-T
°C
Wind Press
QNH
hPa
Press
MSL
hPa
Rain
since 9 am
mm
Dir
 
Spd
km/h
Gust
km/h
Spd
kts
Gust
kts
22/11:30pm 19.8 17.4 10.0 53 5.4 N 13 17 7 9 1021.5 1019.5 0.0
22/11:00pm 20.0 17.6 10.1 53 5.5 NNW 13 15 7 8 1021.7 1019.7 0.0
22/10:30pm 20.0 18.0 10.1 53 5.5 N 11 15 6 8 1021.7 1019.7 0.0
22/10:00pm 20.4 18.3 9.9 51 5.8 N 11 13 6 7 1021.7 1019.7 0.0
22/09:30pm 21.2 19.3 10.4 50 6.1 NNW 11 11 6 6 1021.7 1019.7 0.0
22/09:00pm 21.4 20.0 10.9 51 5.9 NNW 9 11 5 6 1021.8 1019.8 0.0
22/08:30pm 21.3 19.9 10.8 51 5.9 N 9 13 5 7 1021.6 1019.6 0.0
22/08:00pm 21.8 20.3 10.6 49 6.3 N 9 9 5 5 1021.2 1019.2 0.0
22/07:30pm 22.4 20.9 10.5 47 6.7 N 9 11 5 6 1021.0 1019.0 0.0
22/07:00pm 23.7 22.2 10.4 43 7.5 N 9 15 5 8 1021.0 1019.0 0.0
22/06:30pm 24.9 23.0 10.4 40 8.3 N 11 15 6 8 1020.9 1018.9 0.0
22/06:00pm 25.5 22.8 10.5 39 8.6 N 15 20 8 11 1020.9 1018.9 0.0
22/05:30pm 26.3 23.9 10.0 36 9.3 N 13 20 7 11 1021.1 1019.1 0.0
22/05:00pm 25.8 25.5 10.0 37 9.0 NW 2 7 1 4 1021.2 1019.2 0.0
22/04:30pm 26.6 25.1 10.7 37 9.2 S 9 13 5 7 1021.3 1019.3 0.0
22/04:00pm 25.8 24.1 10.0 37 9.0 NNE 9 13 5 7 1021.4 1019.4 0.0
22/03:30pm 26.1 25.0 10.7 38 8.9 SSW 7 13 4 7 1021.7 1019.7 0.0
22/03:00pm 26.3 24.6 11.2 38 8.8 W 11 20 6 11 1022.2 1020.3 0.0
22/02:30pm 25.2 22.6 10.6 40 8.4 W 15 24 8 13 1022.8 1020.8 0.0
22/02:00pm 25.0 22.4 10.8 41 8.1 N 15 22 8 12 1023.3 1021.3 0.0
22/01:30pm 24.1 21.9 10.7 43 7.7 NNW 13 20 7 11 1023.8 1021.9 0.0
22/01:00pm 23.4 20.4 10.8 45 7.2 N 17 24 9 13 1024.3 1022.3 0.0
22/12:30pm 23.1 20.8 10.5 45 7.2 NNW 13 22 7 12 1024.8 1022.8 0.0
22/12:00pm 21.9 19.6 10.4 48 6.5 N 13 22 7 12 1025.2 1023.3 0.0
22/11:30am 21.4 18.8 10.6 50 6.1 N 15 24 8 13 1025.6 1023.7 0.0
22/11:00am 20.8 17.7 10.3 51 5.8 N 17 24 9 13 1026.1 1024.1 0.0
22/10:30am 19.5 16.7 10.0 54 5.2 N 15 24 8 13 1026.4 1024.5 0.0
22/10:00am 18.0 15.0 9.1 56 4.8 N 15 26 8 14 1026.6 1024.7 0.0
22/09:30am 16.8 14.6 9.2 61 4.1 NNE 11 17 6 9 1026.7 1024.8 0.0
22/09:00am 15.5 11.9 8.5 63 3.7 NNE 17 22 9 12 1026.5 1024.6 0.0
22/08:30am 13.8 10.1 8.0 68 3.0 NNE 17 20 9 11 1026.5 1024.6 0.0
22/08:00am 12.8 9.5 7.9 72 2.5 ENE 15 19 8 10 1026.6 1024.7 0.0
22/07:30am 11.8 8.8 7.9 77 2.0 E 13 17 7 9 1026.4 1024.5 0.0
22/07:00am 10.6 8.1 8.0 84 1.3 NE 11 15 6 8 1026.3 1024.4 0.0
22/06:30am 9.9 6.5 7.8 87 1.0 NE 15 17 8 9 1026.0 1024.0 0.0
22/06:00am 9.2 6.5 7.5 89 0.8 NE 11 15 6 8 1025.8 1023.8 0.0
22/05:30am 9.1 6.7 7.2 88 0.9 NE 9 13 5 7 1025.6 1023.7 0.0
22/05:00am 9.1 7.8 7.7 91 0.7 ENE 4 17 2 9 1025.6 1023.7 0.0
22/04:30am 9.1 7.2 7.4 89 0.8 ENE 7 17 4 9 1025.8 1023.8 0.0
22/04:00am 9.7 7.4 7.5 86 1.1 ESE 9 17 5 9 1025.6 1023.7 0.0
22/03:30am 10.3 7.0 7.9 85 1.2 E 15 20 8 11 1025.4 1023.5 0.0
22/03:00am 10.3 7.3 7.5 83 1.4 ESE 13 15 7 8 1025.9 1023.9 0.0
22/02:30am 10.6 7.1 7.3 80 1.6 ESE 15 19 8 10 1026.2 1024.2 0.0
22/02:00am 11.1 8.1 7.6 79 1.7 ESE 13 19 7 10 1026.6 1024.7 0.0
22/01:30am 10.5 8.1 7.0 79 1.7 S 9 11 5 6 1026.9 1025.0 0.0
22/01:00am 10.6 8.1 6.7 77 1.9 S 9 11 5 6 1027.3 1025.4 0.0
22/12:30am 10.9 8.1 7.0 77 1.9 S 11 13 6 7 1027.7 1025.8 0.0
22/12:00am 11.3 8.9 6.8 74 2.2 S 9 11 5 6 1027.8 1025.9 0.0
 
Date/Time
EDT
Temp
°C
App
Temp
°C
Dew
Point
Rel
Hum
%
Delta-T
°C
Wind Press
QNH
hPa
Press
MSL
hPa
Rain
since 9 am
mm
Dir
 
Spd
km/h
Gust
km/h
Spd
kts
Gust
kts
21/11:30pm 11.7 8.9 7.0 73 2.3 S 11 13 6 7 1027.9 1026.0 0.0
21/11:00pm 12.5 9.3 7.0 69 2.7 S 13 15 7 8 1027.9 1026.0 0.0
21/10:30pm 12.8 9.6 7.0 68 2.9 S 13 15 7 8 1028.0 1026.1 0.0

Other Formats:

Comma delimited format used in spreadsheet applications
http://www.bom.gov.au/fwo/IDN60801/IDN60801.95728.axf

JavaScript Object Notation format (JSON) in row-major order
http://www.bom.gov.au/fwo/IDN60801/IDN60801.95728.json